createdAt,value
2022-08-01T00:00:30.107Z,325
2022-08-01T00:05:30.112Z,330
2022-08-01T00:10:30.106Z,325
2022-08-01T00:15:30.113Z,325
2022-08-01T00:20:30.109Z,315
2022-08-01T00:25:34.114Z,322.5
2022-08-01T00:30:30.106Z,312.5
2022-08-01T00:35:30.112Z,325
2022-08-01T00:40:30.112Z,320
2022-08-01T00:45:30.112Z,325
2022-08-01T00:50:30.109Z,320
2022-08-01T00:55:30.109Z,327.5
2022-08-01T01:00:30.203Z,310
2022-08-01T01:05:31.819Z,325
2022-08-01T01:10:30.103Z,317.5
2022-08-01T01:15:30.111Z,320
2022-08-01T01:20:30.113Z,312.5
2022-08-01T01:25:30.102Z,317.5
2022-08-01T01:30:30.102Z,327.5
2022-08-01T01:35:30.119Z,305
2022-08-01T01:40:30.119Z,285
2022-08-01T01:45:30.119Z,285
2022-08-01T01:50:30.098Z,317.5
2022-08-01T01:55:30.111Z,315
2022-08-01T02:00:30.102Z,315
2022-08-01T02:05:30.123Z,305
2022-08-01T02:10:30.118Z,320
2022-08-01T02:15:30.101Z,310
2022-08-01T02:20:30.150Z,310
2022-08-01T02:25:30.131Z,310
2022-08-01T02:30:30.198Z,315
2022-08-01T02:35:30.138Z,312.5
2022-08-01T02:40:30.122Z,322.5
2022-08-01T02:45:30.135Z,292.5
2022-08-01T02:50:30.121Z,287.5
2022-08-01T02:55:30.129Z,287.5
2022-08-01T03:00:30.120Z,292.5
2022-08-01T03:05:30.117Z,305
2022-08-01T03:10:30.099Z,300
2022-08-01T03:15:30.117Z,320
2022-08-01T03:20:30.110Z,315
2022-08-01T03:25:30.121Z,315
2022-08-01T03:30:30.106Z,320
2022-08-01T03:35:30.114Z,315
2022-08-01T03:40:30.110Z,322.5
2022-08-01T03:45:30.109Z,300
2022-08-01T03:50:30.115Z,320
2022-08-01T03:55:30.128Z,312.5
2022-08-01T04:00:30.107Z,310
2022-08-01T04:05:30.104Z,300
2022-08-01T04:10:30.106Z,285
2022-08-01T04:15:30.115Z,285
2022-08-01T04:20:30.103Z,272.5
2022-08-01T04:25:30.127Z,280
2022-08-01T04:30:30.102Z,317.5
2022-08-01T04:36:03.131Z,315
2022-08-01T04:40:30.104Z,320
2022-08-01T04:45:30.118Z,312.5
2022-08-01T04:50:30.109Z,310
2022-08-01T04:55:30.110Z,292.5
2022-08-01T05:00:30.106Z,285
2022-08-01T05:05:30.115Z,280
2022-08-01T05:10:30.154Z,280
2022-08-01T05:15:30.430Z,315
2022-08-01T05:20:30.101Z,272.5
2022-08-01T05:25:54.915Z,280
2022-08-01T05:30:30.107Z,272.5
2022-08-01T05:35:47.724Z,270
2022-08-01T05:40:30.125Z,310
2022-08-01T05:45:30.107Z,315
2022-08-01T05:50:30.103Z,317.5
2022-08-01T05:55:30.125Z,305
2022-08-01T06:00:30.098Z,287.5
2022-08-01T06:05:30.126Z,290
2022-08-01T06:10:30.125Z,302.5
2022-08-01T06:15:30.110Z,320
2022-08-01T06:20:30.136Z,322.5
2022-08-01T06:25:30.112Z,270
2022-08-01T06:30:30.123Z,290
2022-08-01T06:35:30.108Z,297.5
2022-08-01T06:40:30.103Z,295
2022-08-01T06:45:30.126Z,295
2022-08-01T06:50:30.118Z,295
2022-08-01T06:55:30.105Z,320
2022-08-01T07:00:30.206Z,310
2022-08-01T07:05:30.119Z,310
2022-08-01T07:10:30.105Z,305
2022-08-01T07:15:30.103Z,305
2022-08-01T07:20:32.079Z,302.5
2022-08-01T07:25:30.122Z,305
2022-08-01T07:30:30.099Z,305
2022-08-01T07:35:30.116Z,315
2022-08-01T07:40:30.114Z,315
2022-08-01T07:45:30.115Z,300
2022-08-01T07:50:30.120Z,307.5
2022-08-01T07:55:30.107Z,312.5
2022-08-01T08:00:30.104Z,315
2022-08-01T08:05:51.409Z,312.5
2022-08-01T08:10:30.096Z,310
2022-08-01T08:15:30.105Z,330
2022-08-01T08:20:30.125Z,317.5
2022-08-01T08:25:30.113Z,330
2022-08-01T08:30:30.104Z,320
2022-08-01T08:35:40.189Z,322.5
2022-08-01T08:40:30.100Z,330
2022-08-01T08:45:56.343Z,312.5
2022-08-01T08:50:30.101Z,330
2022-08-01T08:55:30.133Z,287.5
2022-08-01T09:00:30.107Z,275
2022-08-01T09:05:38.515Z,320
2022-08-01T09:10:30.103Z,317.5
2022-08-01T09:15:33.791Z,335
2022-08-01T09:20:30.107Z,315
2022-08-01T09:25:30.108Z,325
2022-08-01T09:30:30.113Z,330
2022-08-01T09:35:31.939Z,302.5
2022-08-01T09:40:30.107Z,255
2022-08-01T09:45:30.114Z,317.5
2022-08-01T09:50:30.110Z,337.5
2022-08-01T09:55:30.136Z,320
2022-08-01T10:00:44.667Z,317.5
2022-08-01T10:05:30.129Z,325
2022-08-01T10:10:31.519Z,330
2022-08-01T10:15:36.569Z,342.5
2022-08-01T10:20:31.268Z,337.5
2022-08-01T10:25:41.500Z,280
2022-08-01T10:30:30.102Z,285
2022-08-01T10:35:46.243Z,270
2022-08-01T10:40:31.818Z,282.5
2022-08-01T10:45:30.231Z,330
2022-08-01T10:50:30.108Z,307.5
2022-08-01T10:55:30.116Z,290
2022-08-01T11:00:30.106Z,305
2022-08-01T11:05:30.119Z,325
2022-08-01T11:10:30.099Z,272.5
2022-08-01T11:15:31.188Z,227.5
2022-08-01T11:20:30.120Z,320
2022-08-01T11:25:58.232Z,292.5
2022-08-01T11:30:30.108Z,307.5
2022-08-01T11:35:30.115Z,275
2022-08-01T11:40:30.112Z,295
2022-08-01T11:45:30.110Z,270
2022-08-01T11:50:30.104Z,297.5
2022-08-01T11:55:31.322Z,245
2022-08-01T12:00:30.110Z,285
2022-08-01T12:05:31.307Z,242.5
2022-08-01T12:10:30.105Z,245
2022-08-01T12:15:30.106Z,245
2022-08-01T12:20:30.921Z,312.5
2022-08-01T12:25:30.107Z,307.5
2022-08-01T12:30:30.097Z,327.5
2022-08-01T12:35:30.107Z,302.5
2022-08-01T12:40:30.109Z,302.5
2022-08-01T12:45:30.117Z,322.5
2022-08-01T12:50:30.117Z,322.5
2022-08-01T12:55:33.858Z,327.5
2022-08-01T13:00:30.110Z,327.5
2022-08-01T13:05:30.151Z,337.5
2022-08-01T13:10:30.119Z,327.5
2022-08-01T13:15:30.115Z,325
2022-08-01T13:20:30.114Z,315
2022-08-01T13:25:30.111Z,345
2022-08-01T13:30:30.101Z,322.5
2022-08-01T13:35:30.111Z,270
2022-08-01T13:40:30.111Z,312.5
2022-08-01T13:45:30.102Z,315
2022-08-01T13:50:30.119Z,292.5
2022-08-01T13:55:34.397Z,317.5
2022-08-01T14:00:30.113Z,312.5
2022-08-01T14:05:30.144Z,265
2022-08-01T14:10:30.110Z,302.5
2022-08-01T14:15:37.160Z,280
2022-08-01T14:20:30.146Z,297.5
2022-08-01T14:25:59.270Z,310
2022-08-01T14:30:30.095Z,225
2022-08-01T14:35:30.116Z,327.5
2022-08-01T14:40:30.109Z,305
2022-08-01T14:45:30.110Z,337.5
2022-08-01T14:50:30.103Z,322.5
2022-08-01T14:55:30.115Z,350
2022-08-01T15:00:30.163Z,357.5
2022-08-01T15:05:30.114Z,330
2022-08-01T15:10:30.109Z,345
2022-08-01T15:15:30.129Z,325
2022-08-01T15:20:30.098Z,302.5
2022-08-01T15:25:40.695Z,320
2022-08-01T15:30:30.106Z,330
2022-08-01T15:35:30.134Z,350
2022-08-01T15:40:30.139Z,335
2022-08-01T15:50:30.105Z,325
2022-08-01T15:55:30.112Z,315
2022-08-01T16:00:32.671Z,315
2022-08-01T16:05:30.122Z,322.5
2022-08-01T16:10:30.099Z,337.5
2022-08-01T16:15:31.217Z,345
2022-08-01T16:20:30.109Z,347.5
2022-08-01T16:25:30.110Z,330
2022-08-01T16:30:30.915Z,330
2022-08-01T16:35:31.372Z,320
2022-08-01T16:40:30.110Z,340
2022-08-01T16:45:30.131Z,315
2022-08-01T16:50:30.102Z,325
2022-08-01T16:55:30.110Z,325
2022-08-01T17:00:30.101Z,342.5
2022-08-01T17:05:30.107Z,320
2022-08-01T17:10:30.116Z,10
2022-08-01T17:15:34.467Z,345
2022-08-01T17:20:30.114Z,332.5
2022-08-01T17:25:30.111Z,352.5
2022-08-01T17:30:30.108Z,315
2022-08-01T17:35:30.107Z,320
2022-08-01T17:40:39.963Z,325
2022-08-01T17:45:30.100Z,5
2022-08-01T17:50:30.114Z,345
2022-08-01T17:55:53.104Z,327.5
2022-08-01T18:00:30.103Z,325
2022-08-01T18:05:36.078Z,335
2022-08-01T18:10:30.109Z,317.5
2022-08-01T18:15:30.126Z,340
2022-08-01T18:20:30.109Z,345
2022-08-01T18:25:30.125Z,345
2022-08-01T18:30:30.109Z,330
2022-08-01T18:35:33.064Z,330
2022-08-01T18:40:30.113Z,340
2022-08-01T18:45:30.111Z,325
2022-08-01T18:50:30.107Z,325
2022-08-01T18:55:30.112Z,317.5
2022-08-01T19:00:30.108Z,315
2022-08-01T19:05:30.562Z,315
2022-08-01T19:10:30.101Z,312.5
2022-08-01T19:15:30.114Z,320
2022-08-01T19:20:30.099Z,317.5
2022-08-01T19:25:30.108Z,322.5
2022-08-01T19:30:30.108Z,312.5
2022-08-01T19:35:30.108Z,312.5
2022-08-01T19:40:30.099Z,320
2022-08-01T19:45:30.108Z,322.5
2022-08-01T19:50:30.114Z,317.5
2022-08-01T19:55:30.146Z,320
2022-08-01T20:00:30.220Z,315
2022-08-01T20:05:30.112Z,320
2022-08-01T20:10:30.291Z,317.5
2022-08-01T20:15:30.105Z,315
2022-08-01T20:20:30.110Z,315
2022-08-01T20:25:37.352Z,320
2022-08-01T20:30:30.114Z,312.5
2022-08-01T20:35:51.464Z,320
2022-08-01T20:40:30.111Z,322.5
2022-08-01T20:45:30.104Z,332.5
2022-08-01T20:50:52.618Z,315
2022-08-01T20:55:30.114Z,357.5
2022-08-01T21:00:30.152Z,25
2022-08-01T21:05:30.115Z,15
2022-08-01T21:10:30.102Z,7.5
2022-08-01T21:15:30.109Z,0
2022-08-01T21:20:30.114Z,15
2022-08-01T21:25:30.112Z,15
2022-08-01T21:30:30.109Z,22.5
2022-08-01T21:35:30.102Z,20
2022-08-01T21:40:30.107Z,7.5
2022-08-01T21:45:30.109Z,15
2022-08-01T21:50:30.106Z,15
2022-08-01T21:55:34.072Z,2.5
2022-08-01T22:00:30.108Z,2.5
2022-08-01T22:05:40.493Z,25
2022-08-01T22:10:30.101Z,7.5
2022-08-01T22:15:44.548Z,12.5
2022-08-01T22:20:30.098Z,5
2022-08-01T22:25:30.114Z,5
2022-08-01T22:30:30.103Z,15
2022-08-01T22:35:30.102Z,15
2022-08-01T22:40:30.102Z,17.5
2022-08-01T22:45:30.100Z,17.5
2022-08-01T22:50:33.406Z,15
2022-08-01T22:55:58.008Z,15
2022-08-01T23:00:30.098Z,2.5
2022-08-01T23:05:30.112Z,2.5
2022-08-01T23:10:30.101Z,15
2022-08-01T23:15:30.119Z,10
2022-08-01T23:20:30.105Z,15
2022-08-01T23:25:30.117Z,22.5
2022-08-01T23:30:30.116Z,20
2022-08-01T23:35:30.116Z,17.5
2022-08-01T23:40:30.099Z,350
2022-08-01T23:45:36.191Z,22.5
2022-08-01T23:50:30.106Z,22.5
2022-08-01T23:55:34.000Z,12.5
